sensor_id;sensor_type;location;lat;lon;timestamp;P1;durP1;ratioP1;P2;durP2;ratioP2
1753;SDS011;58380;48.312;9.246;2022-10-31T06:29:27;9.68;;;2.83;;
1753;SDS011;58380;48.312;9.246;2022-10-31T06:31:53;8.23;;;3.20;;
1753;SDS011;58380;48.312;9.246;2022-10-31T06:34:19;5.15;;;2.65;;
1753;SDS011;58380;48.312;9.246;2022-10-31T06:36:45;8.33;;;3.10;;
1753;SDS011;58380;48.312;9.246;2022-10-31T06:39:12;7.55;;;2.50;;
1753;SDS011;58380;48.312;9.246;2022-10-31T06:41:37;5.20;;;2.13;;
1753;SDS011;58380;48.312;9.246;2022-10-31T06:44:04;5.47;;;2.47;;
1753;SDS011;58380;48.312;9.246;2022-10-31T06:46:31;4.13;;;2.22;;
1753;SDS011;58380;48.312;9.246;2022-10-31T06:48:57;6.97;;;2.03;;
1753;SDS011;58380;48.312;9.246;2022-10-31T06:51:22;9.85;;;2.38;;
1753;SDS011;58380;48.312;9.246;2022-10-31T06:53:48;4.93;;;1.90;;
1753;SDS011;58380;48.312;9.246;2022-10-31T06:56:13;12.07;;;2.20;;
1753;SDS011;58380;48.312;9.246;2022-10-31T06:58:39;4.15;;;1.90;;
1753;SDS011;58380;48.312;9.246;2022-10-31T07:01:05;6.97;;;2.23;;
1753;SDS011;58380;48.312;9.246;2022-10-31T07:03:30;7.05;;;2.13;;
1753;SDS011;58380;48.312;9.246;2022-10-31T07:05:56;4.93;;;2.00;;
1753;SDS011;58380;48.312;9.246;2022-10-31T07:08:22;5.35;;;2.20;;
1753;SDS011;58380;48.312;9.246;2022-10-31T07:13:19;4.70;;;1.67;;
1753;SDS011;58380;48.312;9.246;2022-10-31T07:15:49;6.05;;;2.42;;
1753;SDS011;58380;48.312;9.246;2022-10-31T07:18:15;6.78;;;2.10;;
1753;SDS011;58380;48.312;9.246;2022-10-31T07:20:40;6.63;;;2.57;;
1753;SDS011;58380;48.312;9.246;2022-10-31T07:23:07;9.27;;;2.43;;
1753;SDS011;58380;48.312;9.246;2022-10-31T07:25:35;5.20;;;2.08;;
1753;SDS011;58380;48.312;9.246;2022-10-31T07:28:01;4.72;;;2.13;;
1753;SDS011;58380;48.312;9.246;2022-10-31T07:30:26;8.67;;;2.20;;
1753;SDS011;58380;48.312;9.246;2022-10-31T07:32:52;10.40;;;2.97;;
1753;SDS011;58380;48.312;9.246;2022-10-31T07:35:18;9.05;;;3.85;;
1753;SDS011;58380;48.312;9.246;2022-10-31T07:37:47;8.25;;;3.78;;
1753;SDS011;58380;48.312;9.246;2022-10-31T07:42:40;21.00;;;11.13;;
1753;SDS011;58380;48.312;9.246;2022-10-31T07:45:09;21.58;;;11.27;;
1753;SDS011;58380;48.312;9.246;2022-10-31T07:47:48;16.08;;;8.60;;
1753;SDS011;58380;48.312;9.246;2022-10-31T07:50:35;15.93;;;7.43;;
1753;SDS011;58380;48.312;9.246;2022-10-31T07:53:02;17.63;;;7.35;;
1753;SDS011;58380;48.312;9.246;2022-10-31T07:55:32;23.88;;;11.52;;
1753;SDS011;58380;48.312;9.246;2022-10-31T07:57:59;19.13;;;8.73;;
1753;SDS011;58380;48.312;9.246;2022-10-31T08:00:27;15.07;;;8.13;;
1753;SDS011;58380;48.312;9.246;2022-10-31T08:03:11;16.63;;;8.23;;
1753;SDS011;58380;48.312;9.246;2022-10-31T08:08:07;15.77;;;8.38;;
1753;SDS011;58380;48.312;9.246;2022-10-31T08:10:34;24.38;;;10.50;;
1753;SDS011;58380;48.312;9.246;2022-10-31T08:13:01;26.17;;;11.35;;
1753;SDS011;58380;48.312;9.246;2022-10-31T08:15:30;30.20;;;12.93;;
1753;SDS011;58380;48.312;9.246;2022-10-31T08:17:58;22.67;;;10.63;;
1753;SDS011;58380;48.312;9.246;2022-10-31T08:22:57;25.67;;;10.80;;
1753;SDS011;58380;48.312;9.246;2022-10-31T08:25:26;18.73;;;10.25;;
1753;SDS011;58380;48.312;9.246;2022-10-31T08:27:54;22.20;;;9.57;;
1753;SDS011;58380;48.312;9.246;2022-10-31T08:30:21;20.75;;;8.10;;
1753;SDS011;58380;48.312;9.246;2022-10-31T08:35:39;17.60;;;9.10;;
1753;SDS011;58380;48.312;9.246;2022-10-31T08:38:05;18.63;;;9.07;;
1753;SDS011;58380;48.312;9.246;2022-10-31T08:40:32;17.20;;;8.18;;
1753;SDS011;58380;48.312;9.246;2022-10-31T08:43:00;14.85;;;7.63;;
1753;SDS011;58380;48.312;9.246;2022-10-31T08:45:29;14.77;;;6.18;;
1753;SDS011;58380;48.312;9.246;2022-10-31T08:47:57;10.88;;;5.95;;
1753;SDS011;58380;48.312;9.246;2022-10-31T08:50:25;15.13;;;6.85;;
1753;SDS011;58380;48.312;9.246;2022-10-31T08:52:53;14.75;;;6.75;;
1753;SDS011;58380;48.312;9.246;2022-10-31T08:55:18;14.17;;;6.30;;
1753;SDS011;58380;48.312;9.246;2022-10-31T08:57:44;15.13;;;5.68;;
1753;SDS011;58380;48.312;9.246;2022-10-31T09:00:09;12.27;;;5.47;;
1753;SDS011;58380;48.312;9.246;2022-10-31T09:02:35;11.10;;;5.68;;
1753;SDS011;58380;48.312;9.246;2022-10-31T09:05:03;15.68;;;5.10;;
1753;SDS011;58380;48.312;9.246;2022-10-31T09:07:29;18.30;;;5.88;;
1753;SDS011;58380;48.312;9.246;2022-10-31T09:09:54;14.73;;;5.70;;
1753;SDS011;58380;48.312;9.246;2022-10-31T09:14:46;11.82;;;4.93;;
1753;SDS011;58380;48.312;9.246;2022-10-31T09:17:12;14.03;;;5.37;;
1753;SDS011;58380;48.312;9.246;2022-10-31T09:19:37;11.83;;;4.67;;
1753;SDS011;58380;48.312;9.246;2022-10-31T09:22:03;17.43;;;5.13;;
1753;SDS011;58380;48.312;9.246;2022-10-31T09:24:28;8.90;;;4.90;;
1753;SDS011;58380;48.312;9.246;2022-10-31T09:26:53;10.30;;;4.63;;
1753;SDS011;58380;48.312;9.246;2022-10-31T09:29:19;12.03;;;5.13;;
1753;SDS011;58380;48.312;9.246;2022-10-31T09:31:44;13.43;;;4.40;;
1753;SDS011;58380;48.312;9.246;2022-10-31T09:34:10;13.33;;;5.23;;
1753;SDS011;58380;48.312;9.246;2022-10-31T09:36:36;16.73;;;7.47;;
1753;SDS011;58380;48.312;9.246;2022-10-31T09:39:03;13.40;;;7.25;;
1753;SDS011;58380;48.312;9.246;2022-10-31T09:41:33;15.02;;;7.15;;
1753;SDS011;58380;48.312;9.246;2022-10-31T09:44:30;15.50;;;7.10;;
1753;SDS011;58380;48.312;9.246;2022-10-31T09:48:09;16.80;;;6.80;;
1753;SDS011;58380;48.312;9.246;2022-10-31T09:53:42;18.73;;;6.47;;
1753;SDS011;58380;48.312;9.246;2022-10-31T09:56:43;23.20;;;5.75;;
1753;SDS011;58380;48.312;9.246;2022-10-31T09:59:12;11.23;;;5.07;;
1753;SDS011;58380;48.312;9.246;2022-10-31T10:01:54;13.63;;;5.30;;
1753;SDS011;58380;48.312;9.246;2022-10-31T10:13:29;13.65;;;6.68;;
1753;SDS011;58380;48.312;9.246;2022-10-31T10:16:06;26.75;;;12.23;;
1753;SDS011;58380;48.312;9.246;2022-10-31T10:25:25;55.35;;;29.38;;
1753;SDS011;58380;48.312;9.246;2022-10-31T10:28:02;42.80;;;20.48;;
1753;SDS011;58380;48.312;9.246;2022-10-31T10:30:44;40.35;;;19.13;;
1753;SDS011;58380;48.312;9.246;2022-10-31T10:33:28;21.70;;;10.75;;
1753;SDS011;58380;48.312;9.246;2022-10-31T10:36:05;23.45;;;11.07;;
1753;SDS011;58380;48.312;9.246;2022-10-31T10:38:53;15.77;;;9.00;;
1753;SDS011;58380;48.312;9.246;2022-10-31T10:41:27;14.27;;;6.32;;
1753;SDS011;58380;48.312;9.246;2022-10-31T10:43:57;17.55;;;7.05;;
1753;SDS011;58380;48.312;9.246;2022-10-31T10:52:24;17.13;;;5.68;;
1753;SDS011;58380;48.312;9.246;2022-10-31T10:55:35;11.45;;;5.43;;
1753;SDS011;58380;48.312;9.246;2022-10-31T10:58:13;16.88;;;5.03;;
1753;SDS011;58380;48.312;9.246;2022-10-31T11:00:43;11.57;;;5.13;;
1753;SDS011;58380;48.312;9.246;2022-10-31T11:03:15;13.25;;;4.28;;
1753;SDS011;58380;48.312;9.246;2022-10-31T11:05:44;11.02;;;5.15;;
1753;SDS011;58380;48.312;9.246;2022-10-31T11:08:26;13.02;;;4.38;;
1753;SDS011;58380;48.312;9.246;2022-10-31T11:13:55;12.85;;;3.90;;
1753;SDS011;58380;48.312;9.246;2022-10-31T11:16:37;12.00;;;4.43;;
1753;SDS011;58380;48.312;9.246;2022-10-31T11:21:46;8.55;;;3.97;;
1753;SDS011;58380;48.312;9.246;2022-10-31T11:24:14;12.05;;;3.63;;
1753;SDS011;58380;48.312;9.246;2022-10-31T11:26:44;11.20;;;3.20;;
1753;SDS011;58380;48.312;9.246;2022-10-31T11:29:13;12.05;;;3.58;;
1753;SDS011;58380;48.312;9.246;2022-10-31T11:31:45;9.52;;;3.13;;
1753;SDS011;58380;48.312;9.246;2022-10-31T11:34:32;13.38;;;3.67;;
1753;SDS011;58380;48.312;9.246;2022-10-31T11:37:14;11.30;;;3.78;;
1753;SDS011;58380;48.312;9.246;2022-10-31T11:39:52;9.10;;;3.03;;
1753;SDS011;58380;48.312;9.246;2022-10-31T11:42:42;14.40;;;3.28;;
1753;SDS011;58380;48.312;9.246;2022-10-31T11:45:15;12.50;;;3.35;;
1753;SDS011;58380;48.312;9.246;2022-10-31T11:47:59;9.82;;;2.53;;
1753;SDS011;58380;48.312;9.246;2022-10-31T11:50:29;9.73;;;3.15;;
1753;SDS011;58380;48.312;9.246;2022-10-31T11:53:14;10.30;;;2.80;;
1753;SDS011;58380;48.312;9.246;2022-10-31T11:55:44;9.23;;;2.67;;
1753;SDS011;58380;48.312;9.246;2022-10-31T11:58:54;8.98;;;3.25;;
1753;SDS011;58380;48.312;9.246;2022-10-31T12:01:03;10.00;;;3.05;;
1753;SDS011;58380;48.312;9.246;2022-10-31T12:03:35;7.30;;;2.63;;
1753;SDS011;58380;48.312;9.246;2022-10-31T12:06:19;11.98;;;3.20;;
1753;SDS011;58380;48.312;9.246;2022-10-31T12:08:50;12.98;;;3.15;;
1753;SDS011;58380;48.312;9.246;2022-10-31T12:11:59;10.20;;;2.75;;
1753;SDS011;58380;48.312;9.246;2022-10-31T12:17:18;8.75;;;2.70;;
1753;SDS011;58380;48.312;9.246;2022-10-31T12:20:10;7.88;;;2.40;;
1753;SDS011;58380;48.312;9.246;2022-10-31T12:26:35;8.68;;;2.58;;
1753;SDS011;58380;48.312;9.246;2022-10-31T12:32:10;9.23;;;2.45;;
1753;SDS011;58380;48.312;9.246;2022-10-31T12:35:23;8.73;;;2.53;;
1753;SDS011;58380;48.312;9.246;2022-10-31T12:38:05;17.50;;;2.38;;
1753;SDS011;58380;48.312;9.246;2022-10-31T12:43:45;9.80;;;2.63;;
1753;SDS011;58380;48.312;9.246;2022-10-31T12:49:58;8.77;;;2.13;;
1753;SDS011;58380;48.312;9.246;2022-10-31T12:53:00;13.00;;;2.92;;
1753;SDS011;58380;48.312;9.246;2022-10-31T12:55:32;12.35;;;3.85;;
1753;SDS011;58380;48.312;9.246;2022-10-31T12:58:14;13.48;;;3.20;;
1753;SDS011;58380;48.312;9.246;2022-10-31T13:00:50;9.35;;;2.58;;
1753;SDS011;58380;48.312;9.246;2022-10-31T13:03:33;11.38;;;2.95;;
1753;SDS011;58380;48.312;9.246;2022-10-31T13:06:14;10.95;;;2.72;;
1753;SDS011;58380;48.312;9.246;2022-10-31T13:08:55;9.30;;;2.85;;
1753;SDS011;58380;48.312;9.246;2022-10-31T13:11:28;6.18;;;2.53;;
1753;SDS011;58380;48.312;9.246;2022-10-31T13:16:44;10.38;;;2.78;;
1753;SDS011;58380;48.312;9.246;2022-10-31T13:24:21;11.27;;;2.85;;
1753;SDS011;58380;48.312;9.246;2022-10-31T13:26:57;10.43;;;2.30;;
1753;SDS011;58380;48.312;9.246;2022-10-31T13:29:30;10.60;;;2.65;;
1753;SDS011;58380;48.312;9.246;2022-10-31T13:32:05;8.70;;;2.33;;
1753;SDS011;58380;48.312;9.246;2022-10-31T13:37:23;10.40;;;2.53;;
1753;SDS011;58380;48.312;9.246;2022-10-31T13:40:46;8.00;;;1.88;;
1753;SDS011;58380;48.312;9.246;2022-10-31T13:45:53;6.97;;;2.25;;
1753;SDS011;58380;48.312;9.246;2022-10-31T13:50:55;9.60;;;2.22;;
1753;SDS011;58380;48.312;9.246;2022-10-31T13:53:37;8.70;;;2.33;;
1753;SDS011;58380;48.312;9.246;2022-10-31T14:01:35;6.05;;;1.40;;
1753;SDS011;58380;48.312;9.246;2022-10-31T14:04:15;10.13;;;2.22;;
1753;SDS011;58380;48.312;9.246;2022-10-31T14:09:37;8.57;;;2.00;;
1753;SDS011;58380;48.312;9.246;2022-10-31T14:12:21;6.18;;;1.55;;
1753;SDS011;58380;48.312;9.246;2022-10-31T14:17:52;6.65;;;1.90;;
1753;SDS011;58380;48.312;9.246;2022-10-31T14:20:32;10.00;;;2.20;;
1753;SDS011;58380;48.312;9.246;2022-10-31T14:28:44;6.25;;;1.90;;
1753;SDS011;58380;48.312;9.246;2022-10-31T14:33:53;7.90;;;1.60;;
1753;SDS011;58380;48.312;9.246;2022-10-31T14:39:10;5.93;;;1.95;;
1753;SDS011;58380;48.312;9.246;2022-10-31T14:50:41;6.68;;;1.70;;
1753;SDS011;58380;48.312;9.246;2022-10-31T14:53:14;8.77;;;2.13;;
1753;SDS011;58380;48.312;9.246;2022-10-31T14:55:47;11.02;;;2.53;;
1753;SDS011;58380;48.312;9.246;2022-10-31T15:01:35;9.25;;;2.58;;
1753;SDS011;58380;48.312;9.246;2022-10-31T15:04:09;8.00;;;2.05;;
1753;SDS011;58380;48.312;9.246;2022-10-31T15:06:46;10.50;;;2.28;;
1753;SDS011;58380;48.312;9.246;2022-10-31T15:09:21;8.90;;;2.28;;
1753;SDS011;58380;48.312;9.246;2022-10-31T15:11:53;10.98;;;2.20;;
1753;SDS011;58380;48.312;9.246;2022-10-31T15:14:23;8.52;;;2.20;;
1753;SDS011;58380;48.312;9.246;2022-10-31T15:16:52;14.18;;;1.95;;
1753;SDS011;58380;48.312;9.246;2022-10-31T15:19:23;13.23;;;1.80;;
1753;SDS011;58380;48.312;9.246;2022-10-31T15:21:52;11.30;;;1.98;;
1753;SDS011;58380;48.312;9.246;2022-10-31T15:24:22;8.45;;;1.75;;
1753;SDS011;58380;48.312;9.246;2022-10-31T15:26:59;10.88;;;3.60;;
1753;SDS011;58380;48.312;9.246;2022-10-31T15:29:25;11.82;;;3.33;;
1753;SDS011;58380;48.312;9.246;2022-10-31T15:32:00;14.45;;;4.55;;
1753;SDS011;58380;48.312;9.246;2022-10-31T15:34:44;11.20;;;3.50;;
1753;SDS011;58380;48.312;9.246;2022-10-31T15:37:13;17.27;;;4.72;;
1753;SDS011;58380;48.312;9.246;2022-10-31T15:39:42;10.10;;;4.38;;
1753;SDS011;58380;48.312;9.246;2022-10-31T15:42:19;16.67;;;6.05;;
1753;SDS011;58380;48.312;9.246;2022-10-31T15:44:56;28.33;;;9.75;;
1753;SDS011;58380;48.312;9.246;2022-10-31T15:48:00;29.38;;;8.88;;
1753;SDS011;58380;48.312;9.246;2022-10-31T15:50:41;23.73;;;8.80;;
1753;SDS011;58380;48.312;9.246;2022-10-31T15:53:25;12.15;;;3.80;;
1753;SDS011;58380;48.312;9.246;2022-10-31T15:56:02;9.77;;;4.63;;
1753;SDS011;58380;48.312;9.246;2022-10-31T15:58:32;13.85;;;4.00;;
1753;SDS011;58380;48.312;9.246;2022-10-31T16:01:19;11.80;;;3.95;;
1753;SDS011;58380;48.312;9.246;2022-10-31T16:06:31;7.18;;;1.98;;
1753;SDS011;58380;48.312;9.246;2022-10-31T16:08:59;8.68;;;1.73;;
1753;SDS011;58380;48.312;9.246;2022-10-31T16:14:14;5.43;;;1.58;;
1753;SDS011;58380;48.312;9.246;2022-10-31T16:16:48;12.20;;;2.00;;
1753;SDS011;58380;48.312;9.246;2022-10-31T16:19:19;6.85;;;1.88;;
1753;SDS011;58380;48.312;9.246;2022-10-31T16:22:11;10.50;;;2.80;;
1753;SDS011;58380;48.312;9.246;2022-10-31T16:24:44;16.13;;;2.67;;
1753;SDS011;58380;48.312;9.246;2022-10-31T16:27:23;13.52;;;3.25;;
1753;SDS011;58380;48.312;9.246;2022-10-31T16:29:53;9.20;;;2.55;;
1753;SDS011;58380;48.312;9.246;2022-10-31T16:32:26;14.27;;;2.90;;
1753;SDS011;58380;48.312;9.246;2022-10-31T16:35:18;12.80;;;3.10;;
1753;SDS011;58380;48.312;9.246;2022-10-31T16:37:56;8.65;;;2.38;;
1753;SDS011;58380;48.312;9.246;2022-10-31T16:40:22;5.82;;;2.55;;
1753;SDS011;58380;48.312;9.246;2022-10-31T16:45:16;9.02;;;2.67;;
1753;SDS011;58380;48.312;9.246;2022-10-31T16:47:45;8.70;;;3.33;;
1753;SDS011;58380;48.312;9.246;2022-10-31T16:50:12;12.15;;;3.63;;
1753;SDS011;58380;48.312;9.246;2022-10-31T16:52:41;11.82;;;2.92;;
1753;SDS011;58380;48.312;9.246;2022-10-31T16:55:10;9.43;;;2.65;;
1753;SDS011;58380;48.312;9.246;2022-10-31T16:57:38;8.07;;;2.90;;
1753;SDS011;58380;48.312;9.246;2022-10-31T17:00:09;9.82;;;2.88;;
1753;SDS011;58380;48.312;9.246;2022-10-31T17:02:42;7.70;;;3.17;;
1753;SDS011;58380;48.312;9.246;2022-10-31T17:05:12;10.77;;;2.90;;
1753;SDS011;58380;48.312;9.246;2022-10-31T17:07:40;8.23;;;2.35;;
1753;SDS011;58380;48.312;9.246;2022-10-31T17:12:33;7.75;;;2.10;;
1753;SDS011;58380;48.312;9.246;2022-10-31T17:15:00;6.90;;;2.25;;
1753;SDS011;58380;48.312;9.246;2022-10-31T17:17:27;10.68;;;2.53;;
1753;SDS011;58380;48.312;9.246;2022-10-31T17:19:52;10.20;;;2.37;;
1753;SDS011;58380;48.312;9.246;2022-10-31T17:22:17;8.93;;;1.97;;
1753;SDS011;58380;48.312;9.246;2022-10-31T17:24:43;10.33;;;2.23;;
1753;SDS011;58380;48.312;9.246;2022-10-31T17:27:08;6.03;;;2.20;;
1753;SDS011;58380;48.312;9.246;2022-10-31T17:29:34;4.70;;;2.10;;
1753;SDS011;58380;48.312;9.246;2022-10-31T17:32:00;8.10;;;2.05;;
1753;SDS011;58380;48.312;9.246;2022-10-31T17:34:27;10.40;;;2.53;;
1753;SDS011;58380;48.312;9.246;2022-10-31T17:36:53;8.10;;;2.40;;
1753;SDS011;58380;48.312;9.246;2022-10-31T17:39:19;7.70;;;3.13;;
1753;SDS011;58380;48.312;9.246;2022-10-31T17:41:44;12.27;;;4.07;;
1753;SDS011;58380;48.312;9.246;2022-10-31T17:44:13;24.65;;;8.23;;
1753;SDS011;58380;48.312;9.246;2022-10-31T17:46:39;17.23;;;7.63;;
1753;SDS011;58380;48.312;9.246;2022-10-31T17:49:04;23.37;;;7.83;;
1753;SDS011;58380;48.312;9.246;2022-10-31T17:51:32;9.82;;;3.22;;
1753;SDS011;58380;48.312;9.246;2022-10-31T17:53:57;16.20;;;5.00;;
1753;SDS011;58380;48.312;9.246;2022-10-31T17:56:23;17.60;;;6.73;;
1753;SDS011;58380;48.312;9.246;2022-10-31T17:58:49;23.45;;;7.63;;
1753;SDS011;58380;48.312;9.246;2022-10-31T18:01:15;17.93;;;7.37;;
1753;SDS011;58380;48.312;9.246;2022-10-31T18:03:43;20.48;;;8.05;;
1753;SDS011;58380;48.312;9.246;2022-10-31T18:06:09;21.67;;;8.50;;
1753;SDS011;58380;48.312;9.246;2022-10-31T18:08:38;20.42;;;9.40;;
1753;SDS011;58380;48.312;9.246;2022-10-31T18:11:09;15.07;;;5.95;;
1753;SDS011;58380;48.312;9.246;2022-10-31T18:13:41;17.85;;;7.10;;
1753;SDS011;58380;48.312;9.246;2022-10-31T18:16:08;12.70;;;4.80;;
1753;SDS011;58380;48.312;9.246;2022-10-31T18:18:36;12.70;;;3.90;;
1753;SDS011;58380;48.312;9.246;2022-10-31T18:21:01;11.27;;;3.37;;
1753;SDS011;58380;48.312;9.246;2022-10-31T18:23:27;10.07;;;3.13;;
1753;SDS011;58380;48.312;9.246;2022-10-31T18:25:52;10.97;;;3.73;;
1753;SDS011;58380;48.312;9.246;2022-10-31T18:28:19;15.32;;;6.25;;
1753;SDS011;58380;48.312;9.246;2022-10-31T18:30:45;13.25;;;5.00;;
1753;SDS011;58380;48.312;9.246;2022-10-31T18:33:10;15.98;;;4.38;;
1753;SDS011;58380;48.312;9.246;2022-10-31T18:35:36;23.45;;;8.43;;
1753;SDS011;58380;48.312;9.246;2022-10-31T18:38:04;25.60;;;9.48;;
1753;SDS011;58380;48.312;9.246;2022-10-31T18:40:31;19.73;;;9.13;;
1753;SDS011;58380;48.312;9.246;2022-10-31T18:42:59;14.82;;;6.25;;
1753;SDS011;58380;48.312;9.246;2022-10-31T18:45:26;20.40;;;7.45;;
1753;SDS011;58380;48.312;9.246;2022-10-31T18:47:52;18.58;;;7.95;;
1753;SDS011;58380;48.312;9.246;2022-10-31T18:50:17;21.40;;;9.38;;
1753;SDS011;58380;48.312;9.246;2022-10-31T18:55:09;10.43;;;4.05;;
1753;SDS011;58380;48.312;9.246;2022-10-31T18:57:34;11.97;;;4.47;;
1753;SDS011;58380;48.312;9.246;2022-10-31T19:00:00;16.80;;;7.88;;
1753;SDS011;58380;48.312;9.246;2022-10-31T19:02:28;23.42;;;10.13;;
1753;SDS011;58380;48.312;9.246;2022-10-31T19:04:53;33.57;;;15.13;;
1753;SDS011;58380;48.312;9.246;2022-10-31T19:07:19;37.30;;;15.33;;
1753;SDS011;58380;48.312;9.246;2022-10-31T19:09:44;28.10;;;12.70;;
1753;SDS011;58380;48.312;9.246;2022-10-31T19:12:10;20.77;;;8.70;;
1753;SDS011;58380;48.312;9.246;2022-10-31T19:14:35;30.77;;;15.50;;
1753;SDS011;58380;48.312;9.246;2022-10-31T19:17:00;44.13;;;19.97;;
1753;SDS011;58380;48.312;9.246;2022-10-31T19:19:26;47.93;;;21.30;;
1753;SDS011;58380;48.312;9.246;2022-10-31T19:21:51;48.30;;;22.60;;
1753;SDS011;58380;48.312;9.246;2022-10-31T19:24:17;51.93;;;25.27;;
1753;SDS011;58380;48.312;9.246;2022-10-31T19:26:42;49.50;;;24.30;;
1753;SDS011;58380;48.312;9.246;2022-10-31T19:29:08;50.30;;;23.57;;
1753;SDS011;58380;48.312;9.246;2022-10-31T19:33:59;39.50;;;19.27;;
1753;SDS011;58380;48.312;9.246;2022-10-31T19:36:25;43.63;;;21.83;;
1753;SDS011;58380;48.312;9.246;2022-10-31T19:41:18;44.70;;;19.65;;
1753;SDS011;58380;48.312;9.246;2022-10-31T19:43:50;51.08;;;23.98;;
1753;SDS011;58380;48.312;9.246;2022-10-31T19:46:17;44.78;;;20.90;;
1753;SDS011;58380;48.312;9.246;2022-10-31T19:48:45;36.40;;;14.60;;
1753;SDS011;58380;48.312;9.246;2022-10-31T19:51:11;16.95;;;6.60;;
1753;SDS011;58380;48.312;9.246;2022-10-31T19:53:42;16.77;;;6.97;;
1753;SDS011;58380;48.312;9.246;2022-10-31T19:56:12;16.45;;;7.72;;
1753;SDS011;58380;48.312;9.246;2022-10-31T19:58:41;21.92;;;8.50;;
1753;SDS011;58380;48.312;9.246;2022-10-31T20:01:11;21.75;;;8.82;;
1753;SDS011;58380;48.312;9.246;2022-10-31T20:03:42;23.35;;;8.93;;
1753;SDS011;58380;48.312;9.246;2022-10-31T20:06:13;19.67;;;8.18;;
1753;SDS011;58380;48.312;9.246;2022-10-31T20:08:45;14.57;;;7.30;;
1753;SDS011;58380;48.312;9.246;2022-10-31T20:11:11;21.67;;;9.43;;
1753;SDS011;58380;48.312;9.246;2022-10-31T20:13:36;29.52;;;13.77;;
1753;SDS011;58380;48.312;9.246;2022-10-31T20:16:03;27.85;;;15.32;;
1753;SDS011;58380;48.312;9.246;2022-10-31T20:18:32;40.25;;;19.40;;
1753;SDS011;58380;48.312;9.246;2022-10-31T20:21:05;24.52;;;10.82;;
1753;SDS011;58380;48.312;9.246;2022-10-31T20:23:37;18.52;;;8.98;;
1753;SDS011;58380;48.312;9.246;2022-10-31T20:26:04;18.00;;;8.80;;
1753;SDS011;58380;48.312;9.246;2022-10-31T20:28:33;20.63;;;9.38;;
1753;SDS011;58380;48.312;9.246;2022-10-31T20:30:59;30.42;;;11.60;;
1753;SDS011;58380;48.312;9.246;2022-10-31T20:33:31;29.20;;;13.98;;
1753;SDS011;58380;48.312;9.246;2022-10-31T20:35:56;29.02;;;14.30;;
1753;SDS011;58380;48.312;9.246;2022-10-31T20:38:22;34.80;;;16.67;;
1753;SDS011;58380;48.312;9.246;2022-10-31T20:40:47;34.70;;;14.83;;
1753;SDS011;58380;48.312;9.246;2022-10-31T20:43:13;28.93;;;14.67;;
1753;SDS011;58380;48.312;9.246;2022-10-31T20:45:40;33.38;;;14.45;;
1753;SDS011;58380;48.312;9.246;2022-10-31T20:48:06;35.17;;;16.42;;
1753;SDS011;58380;48.312;9.246;2022-10-31T20:50:31;34.30;;;17.05;;
1753;SDS011;58380;48.312;9.246;2022-10-31T20:52:57;37.33;;;17.33;;
1753;SDS011;58380;48.312;9.246;2022-10-31T20:55:22;35.47;;;16.80;;
1753;SDS011;58380;48.312;9.246;2022-10-31T20:57:48;37.37;;;15.37;;
1753;SDS011;58380;48.312;9.246;2022-10-31T21:00:14;27.85;;;14.52;;
1753;SDS011;58380;48.312;9.246;2022-10-31T21:02:40;30.92;;;14.40;;
1753;SDS011;58380;48.312;9.246;2022-10-31T21:05:07;28.05;;;15.20;;
1753;SDS011;58380;48.312;9.246;2022-10-31T21:07:35;35.75;;;16.77;;
1753;SDS011;58380;48.312;9.246;2022-10-31T21:10:00;30.83;;;16.92;;
1753;SDS011;58380;48.312;9.246;2022-10-31T21:12:26;33.50;;;16.67;;
1753;SDS011;58380;48.312;9.246;2022-10-31T21:14:51;26.50;;;14.17;;
1753;SDS011;58380;48.312;9.246;2022-10-31T21:17:17;32.27;;;16.10;;
1753;SDS011;58380;48.312;9.246;2022-10-31T21:19:42;28.70;;;15.17;;
1753;SDS011;58380;48.312;9.246;2022-10-31T21:22:07;33.80;;;16.33;;
1753;SDS011;58380;48.312;9.246;2022-10-31T21:24:33;34.90;;;17.60;;
1753;SDS011;58380;48.312;9.246;2022-10-31T21:26:58;30.80;;;16.38;;
1753;SDS011;58380;48.312;9.246;2022-10-31T21:29:24;38.63;;;18.13;;
1753;SDS011;58380;48.312;9.246;2022-10-31T21:31:49;44.10;;;22.13;;
1753;SDS011;58380;48.312;9.246;2022-10-31T21:34:15;40.63;;;20.17;;
1753;SDS011;58380;48.312;9.246;2022-10-31T21:36:42;39.30;;;19.42;;
1753;SDS011;58380;48.312;9.246;2022-10-31T21:39:08;39.93;;;20.03;;
1753;SDS011;58380;48.312;9.246;2022-10-31T21:41:34;55.15;;;27.92;;
1753;SDS011;58380;48.312;9.246;2022-10-31T21:44:00;48.83;;;24.45;;
1753;SDS011;58380;48.312;9.246;2022-10-31T21:46:27;44.38;;;23.25;;
1753;SDS011;58380;48.312;9.246;2022-10-31T21:48:55;36.55;;;17.33;;
1753;SDS011;58380;48.312;9.246;2022-10-31T21:51:25;37.47;;;19.00;;
1753;SDS011;58380;48.312;9.246;2022-10-31T21:53:54;39.65;;;18.63;;
1753;SDS011;58380;48.312;9.246;2022-10-31T21:56:39;48.42;;;23.40;;
1753;SDS011;58380;48.312;9.246;2022-10-31T21:59:05;40.72;;;19.88;;
1753;SDS011;58380;48.312;9.246;2022-10-31T22:01:31;40.53;;;19.95;;
1753;SDS011;58380;48.312;9.246;2022-10-31T22:03:58;49.75;;;21.40;;
1753;SDS011;58380;48.312;9.246;2022-10-31T22:06:24;52.25;;;24.42;;
1753;SDS011;58380;48.312;9.246;2022-10-31T22:08:52;49.78;;;21.70;;
